Terminal Aerodrome Forecast
Issued by NWS

Home | Current Version | Previous Version | Graphics & Text | Print | Product List | Glossary On
Versions: 1 2 3 4 5 6 7 8 9 10 11 12 13 14 15 16 17 18 19 20 21 22
000
FTUS43 KICT 061847 AAA
TAFSLN
TAF AMD
KSLN 061847Z 0619/0718 16025G33KT P6SM OVC015
     FM062000 16026G35KT P6SM VCTS SCT015 BKN025CB
     FM062300 18025G34KT P6SM VCTS SCT035CB BKN060
     FM070800 18022G30KT P6SM BKN010=

USA.gov is the U.S. government's official web portal to all federal, state and local government web resources and services.